Olga Topic — ELSG4 — position and weather

sailwx.info

Track history (hours):
 
Tides and Currents Weather Stations Pressure Air Temp Water Temp Dewpoint Dewpoint Depression Visibility Wind Speed Wind Dir Waves Ship Positions

Olga Topic

Last reported at 2016-Jun-21 13:33 UTC. Time now 2016-Jun-26 12:01 UTC.
Position N 41°22' W 034°21'.

Length 186 m; draft 9.2 m.

Type: Cargo ship. MMSI: 636010327.

Date/timePositionNaut miles runAvg speedWind from/ knotsBaromVisibWave heightAir tempDewpointWater temp
2016-Jun-21 13:33N 41°22' W 034°21'1110.5
2016-Jun-21 12:32N 41°22' W 034°07'1210.5
2016-Jun-21 11:24N 41°21' W 033°51'38310.4
2016-Jun-19 22:30N 40°14' W 025°34'1111.2
2016-Jun-19 21:33N 40°12' W 025°20'9511.4
2016-Jun-19 13:13N 39°45' W 023°21'811.7
2016-Jun-19 12:30N 39°42' W 023°11'  
2016-Jun-16 06:05N 35°59' W 005°33'5 9.2
2016-Jun-16 05:33N 36°00' W 005°27'8 7.5
2016-Jun-16 04:29N 36°07' W 005°23'1 0.4
2016-Jun-16 02:09N 36°08' W 005°22'0 0.1
2016-Jun-16 01:33N 36°08' W 005°22'0 0.0
2016-Jun-16 00:27N 36°08' W 005°22'0 0.0
2016-Jun-15 23:12N 36°08' W 005°22'0 0.1
2016-Jun-15 22:33N 36°08' W 005°22'0 0.1
2016-Jun-15 21:31N 36°08' W 005°22'0 0.1
2016-Jun-15 20:32N 36°08' W 005°22'2 2.3
2016-Jun-15 19:33N 36°06' W 005°22'4 4.3
2016-Jun-15 18:33N 36°03' W 005°17'181 9.5
2016-Jun-14 23:26N 36°22' W 001°34'4310.6
2016-Jun-14 19:22N 36°31' W 000°41'4311.3
2016-Jun-14 15:33N 36°40' E 000°11'  
2016-Jun-12 09:33N 36°52' E 012°34'1211.5
2016-Jun-12 08:31N 36°49' E 012°48'1111.7
2016-Jun-12 07:33N 36°47' E 013°02'1111.5
2016-Jun-12 06:33N 36°43' E 013°15'3611.6
2016-Jun-12 03:30N 36°33' E 013°58'1611.8
2016-Jun-12 02:11N 36°29' E 014°16'811.8
2016-Jun-12 01:31N 36°27' E 014°26'  
Track history (hours):
 
Tides and Currents Weather Stations Pressure Air Temp Water Temp Dewpoint Dewpoint Depression Visibility Wind Speed Wind Dir Waves Ship Positions

Olga Topic

Last reported at 2016-Jun-21 13:33 UTC. Time now 2016-Jun-26 12:01 UTC.
Position N 41°22' W 034°21'.

Length 186 m; draft 9.2 m.

Type: Cargo ship. MMSI: 636010327.

Date/timePositionNaut miles runAvg speedWind from/ knotsBaromVisibWave heightAir tempDewpointWater temp
2016-Jun-21 13:33N 41°22' W 034°21'1110.5
2016-Jun-21 12:32N 41°22' W 034°07'1210.5
2016-Jun-21 11:24N 41°21' W 033°51'38310.4
2016-Jun-19 22:30N 40°14' W 025°34'1111.2
2016-Jun-19 21:33N 40°12' W 025°20'9511.4
2016-Jun-19 13:13N 39°45' W 023°21'811.7
2016-Jun-19 12:30N 39°42' W 023°11'  
2016-Jun-16 06:05N 35°59' W 005°33'5 9.2
2016-Jun-16 05:33N 36°00' W 005°27'8 7.5
2016-Jun-16 04:29N 36°07' W 005°23'1 0.4
2016-Jun-16 02:09N 36°08' W 005°22'0 0.1
2016-Jun-16 01:33N 36°08' W 005°22'0 0.0
2016-Jun-16 00:27N 36°08' W 005°22'0 0.0
2016-Jun-15 23:12N 36°08' W 005°22'0 0.1
2016-Jun-15 22:33N 36°08' W 005°22'0 0.1
2016-Jun-15 21:31N 36°08' W 005°22'0 0.1
2016-Jun-15 20:32N 36°08' W 005°22'2 2.3
2016-Jun-15 19:33N 36°06' W 005°22'4 4.3
2016-Jun-15 18:33N 36°03' W 005°17'181 9.5
2016-Jun-14 23:26N 36°22' W 001°34'4310.6
2016-Jun-14 19:22N 36°31' W 000°41'4311.3
2016-Jun-14 15:33N 36°40' E 000°11'  
2016-Jun-12 09:33N 36°52' E 012°34'1211.5
2016-Jun-12 08:31N 36°49' E 012°48'1111.7
2016-Jun-12 07:33N 36°47' E 013°02'1111.5
2016-Jun-12 06:33N 36°43' E 013°15'3611.6
2016-Jun-12 03:30N 36°33' E 013°58'1611.8
2016-Jun-12 02:11N 36°29' E 014°16'811.8
2016-Jun-12 01:31N 36°27' E 014°26'  

Dump ship's entire track history